sensor_id;sensor_type;location;lat;lon;timestamp;P1;durP1;ratioP1;P2;durP2;ratioP2
36839;SDS011;24406;51.640;9.566;2023-05-13T00:01:22;11.55;;;8.20;;
36839;SDS011;24406;51.640;9.566;2023-05-13T00:06:23;9.32;;;7.80;;
36839;SDS011;24406;51.640;9.566;2023-05-13T00:11:26;9.55;;;8.48;;
36839;SDS011;24406;51.640;9.566;2023-05-13T00:16:28;13.02;;;9.57;;
36839;SDS011;24406;51.640;9.566;2023-05-13T00:21:29;9.88;;;8.55;;
36839;SDS011;24406;51.640;9.566;2023-05-13T00:26:32;8.90;;;8.05;;
36839;SDS011;24406;51.640;9.566;2023-05-13T00:31:34;11.77;;;8.43;;
36839;SDS011;24406;51.640;9.566;2023-05-13T00:36:36;12.85;;;9.10;;
36839;SDS011;24406;51.640;9.566;2023-05-13T00:41:39;8.98;;;8.05;;
36839;SDS011;24406;51.640;9.566;2023-05-13T00:46:40;13.38;;;8.50;;
36839;SDS011;24406;51.640;9.566;2023-05-13T00:51:42;10.15;;;8.98;;
36839;SDS011;24406;51.640;9.566;2023-05-13T00:56:45;10.63;;;9.55;;
36839;SDS011;24406;51.640;9.566;2023-05-13T01:01:49;10.40;;;9.48;;
36839;SDS011;24406;51.640;9.566;2023-05-13T01:07:04;13.43;;;9.20;;
36839;SDS011;24406;51.640;9.566;2023-05-13T01:12:12;10.07;;;9.00;;
36839;SDS011;24406;51.640;9.566;2023-05-13T01:17:17;17.52;;;9.30;;
36839;SDS011;24406;51.640;9.566;2023-05-13T01:22:20;10.23;;;9.00;;
36839;SDS011;24406;51.640;9.566;2023-05-13T01:27:21;13.75;;;8.80;;
36839;SDS011;24406;51.640;9.566;2023-05-13T01:32:23;9.93;;;8.98;;
36839;SDS011;24406;51.640;9.566;2023-05-13T01:37:26;9.02;;;8.13;;
36839;SDS011;24406;51.640;9.566;2023-05-13T01:42:29;8.25;;;7.55;;
36839;SDS011;24406;51.640;9.566;2023-05-13T01:47:31;9.02;;;8.23;;
36839;SDS011;24406;51.640;9.566;2023-05-13T01:52:35;9.57;;;8.30;;
36839;SDS011;24406;51.640;9.566;2023-05-13T01:57:39;8.05;;;7.32;;
36839;SDS011;24406;51.640;9.566;2023-05-13T02:02:41;10.45;;;8.85;;
36839;SDS011;24406;51.640;9.566;2023-05-13T02:07:45;9.77;;;8.15;;
36839;SDS011;24406;51.640;9.566;2023-05-13T02:12:46;10.45;;;8.23;;
36839;SDS011;24406;51.640;9.566;2023-05-13T02:17:48;9.60;;;8.70;;
36839;SDS011;24406;51.640;9.566;2023-05-13T02:22:50;12.15;;;9.27;;
36839;SDS011;24406;51.640;9.566;2023-05-13T02:27:52;12.15;;;9.07;;
36839;SDS011;24406;51.640;9.566;2023-05-13T02:32:54;11.65;;;9.15;;
36839;SDS011;24406;51.640;9.566;2023-05-13T02:37:57;10.20;;;8.68;;
36839;SDS011;24406;51.640;9.566;2023-05-13T02:43:00;9.27;;;8.48;;
36839;SDS011;24406;51.640;9.566;2023-05-13T02:48:15;8.63;;;7.85;;
36839;SDS011;24406;51.640;9.566;2023-05-13T02:53:18;8.52;;;7.72;;
36839;SDS011;24406;51.640;9.566;2023-05-13T02:58:26;9.35;;;8.55;;
36839;SDS011;24406;51.640;9.566;2023-05-13T03:03:28;8.48;;;7.63;;
36839;SDS011;24406;51.640;9.566;2023-05-13T03:08:31;7.90;;;7.20;;
36839;SDS011;24406;51.640;9.566;2023-05-13T03:13:33;7.82;;;7.22;;
36839;SDS011;24406;51.640;9.566;2023-05-13T03:18:34;8.85;;;8.05;;
36839;SDS011;24406;51.640;9.566;2023-05-13T03:23:37;9.95;;;8.50;;
36839;SDS011;24406;51.640;9.566;2023-05-13T03:28:39;10.93;;;9.52;;
36839;SDS011;24406;51.640;9.566;2023-05-13T03:33:41;11.88;;;8.50;;
36839;SDS011;24406;51.640;9.566;2023-05-13T03:38:44;10.95;;;9.43;;
36839;SDS011;24406;51.640;9.566;2023-05-13T03:43:45;10.88;;;8.20;;
36839;SDS011;24406;51.640;9.566;2023-05-13T03:48:48;11.73;;;8.85;;
36839;SDS011;24406;51.640;9.566;2023-05-13T03:53:51;8.93;;;7.95;;
36839;SDS011;24406;51.640;9.566;2023-05-13T03:58:53;8.77;;;7.88;;
36839;SDS011;24406;51.640;9.566;2023-05-13T04:03:55;12.57;;;9.57;;
36839;SDS011;24406;51.640;9.566;2023-05-13T04:08:58;9.32;;;8.52;;
36839;SDS011;24406;51.640;9.566;2023-05-13T04:14:00;10.52;;;8.48;;
36839;SDS011;24406;51.640;9.566;2023-05-13T04:19:01;9.25;;;8.35;;
36839;SDS011;24406;51.640;9.566;2023-05-13T04:24:04;10.82;;;9.65;;
36839;SDS011;24406;51.640;9.566;2023-05-13T04:29:06;11.55;;;9.73;;
36839;SDS011;24406;51.640;9.566;2023-05-13T04:34:08;9.77;;;8.77;;
36839;SDS011;24406;51.640;9.566;2023-05-13T04:39:11;9.45;;;8.55;;
36839;SDS011;24406;51.640;9.566;2023-05-13T04:44:12;13.27;;;9.27;;
36839;SDS011;24406;51.640;9.566;2023-05-13T04:49:14;9.95;;;8.95;;
36839;SDS011;24406;51.640;9.566;2023-05-13T04:54:17;9.60;;;8.48;;
36839;SDS011;24406;51.640;9.566;2023-05-13T04:59:19;10.63;;;9.52;;
36839;SDS011;24406;51.640;9.566;2023-05-13T05:04:20;11.35;;;9.82;;
36839;SDS011;24406;51.640;9.566;2023-05-13T05:09:24;11.85;;;10.45;;
36839;SDS011;24406;51.640;9.566;2023-05-13T05:14:27;12.73;;;10.90;;
36839;SDS011;24406;51.640;9.566;2023-05-13T05:19:29;12.20;;;11.10;;
36839;SDS011;24406;51.640;9.566;2023-05-13T05:24:32;15.38;;;11.30;;
36839;SDS011;24406;51.640;9.566;2023-05-13T05:29:34;11.60;;;10.30;;
36839;SDS011;24406;51.640;9.566;2023-05-13T05:34:35;13.95;;;12.30;;
36839;SDS011;24406;51.640;9.566;2023-05-13T05:39:39;13.65;;;11.23;;
36839;SDS011;24406;51.640;9.566;2023-05-13T05:44:41;18.67;;;11.15;;
36839;SDS011;24406;51.640;9.566;2023-05-13T05:49:43;12.10;;;10.98;;
36839;SDS011;24406;51.640;9.566;2023-05-13T05:54:47;12.75;;;10.52;;
36839;SDS011;24406;51.640;9.566;2023-05-13T05:59:49;10.65;;;9.65;;
36839;SDS011;24406;51.640;9.566;2023-05-13T06:04:51;10.88;;;9.95;;
36839;SDS011;24406;51.640;9.566;2023-05-13T06:09:54;10.55;;;9.60;;
36839;SDS011;24406;51.640;9.566;2023-05-13T06:14:56;10.00;;;8.95;;
36839;SDS011;24406;51.640;9.566;2023-05-13T06:19:58;15.88;;;9.00;;
36839;SDS011;24406;51.640;9.566;2023-05-13T06:25:00;9.63;;;8.73;;
36839;SDS011;24406;51.640;9.566;2023-05-13T06:30:02;9.15;;;8.32;;
36839;SDS011;24406;51.640;9.566;2023-05-13T06:35:05;9.40;;;7.22;;
36839;SDS011;24406;51.640;9.566;2023-05-13T06:40:09;8.95;;;8.05;;
36839;SDS011;24406;51.640;9.566;2023-05-13T06:45:15;9.68;;;8.68;;
36839;SDS011;24406;51.640;9.566;2023-05-13T06:50:19;8.30;;;7.32;;
36839;SDS011;24406;51.640;9.566;2023-05-13T06:55:22;9.20;;;7.75;;
36839;SDS011;24406;51.640;9.566;2023-05-13T07:00:23;8.45;;;7.70;;
36839;SDS011;24406;51.640;9.566;2023-05-13T07:05:25;9.55;;;8.55;;
36839;SDS011;24406;51.640;9.566;2023-05-13T07:10:28;9.50;;;8.23;;
36839;SDS011;24406;51.640;9.566;2023-05-13T07:15:30;8.57;;;7.47;;
36839;SDS011;24406;51.640;9.566;2023-05-13T07:20:31;7.95;;;7.15;;
36839;SDS011;24406;51.640;9.566;2023-05-13T07:25:34;17.25;;;11.48;;
36839;SDS011;24406;51.640;9.566;2023-05-13T07:30:38;18.50;;;11.70;;
36839;SDS011;24406;51.640;9.566;2023-05-13T07:35:39;21.23;;;11.00;;
36839;SDS011;24406;51.640;9.566;2023-05-13T07:40:42;10.02;;;9.02;;
36839;SDS011;24406;51.640;9.566;2023-05-13T07:45:44;10.43;;;8.05;;
36839;SDS011;24406;51.640;9.566;2023-05-13T07:50:45;10.85;;;7.90;;
36839;SDS011;24406;51.640;9.566;2023-05-13T07:55:48;10.45;;;7.88;;
36839;SDS011;24406;51.640;9.566;2023-05-13T08:00:50;10.07;;;7.80;;
36839;SDS011;24406;51.640;9.566;2023-05-13T08:05:51;10.00;;;7.45;;
36839;SDS011;24406;51.640;9.566;2023-05-13T08:10:54;10.27;;;7.07;;
36839;SDS011;24406;51.640;9.566;2023-05-13T08:15:58;10.75;;;6.80;;
36839;SDS011;24406;51.640;9.566;2023-05-13T08:21:00;9.30;;;7.85;;
36839;SDS011;24406;51.640;9.566;2023-05-13T08:26:03;8.70;;;7.15;;
36839;SDS011;24406;51.640;9.566;2023-05-13T08:31:05;10.27;;;6.75;;
36839;SDS011;24406;51.640;9.566;2023-05-13T08:36:06;5.95;;;5.38;;
36839;SDS011;24406;51.640;9.566;2023-05-13T08:41:10;5.95;;;4.70;;
36839;SDS011;24406;51.640;9.566;2023-05-13T08:46:12;10.10;;;5.43;;
36839;SDS011;24406;51.640;9.566;2023-05-13T08:51:16;6.70;;;4.65;;
36839;SDS011;24406;51.640;9.566;2023-05-13T08:56:19;7.15;;;4.70;;
36839;SDS011;24406;51.640;9.566;2023-05-13T09:01:24;7.00;;;5.28;;
36839;SDS011;24406;51.640;9.566;2023-05-13T09:06:26;7.25;;;4.38;;
36839;SDS011;24406;51.640;9.566;2023-05-13T09:11:30;4.93;;;4.45;;
36839;SDS011;24406;51.640;9.566;2023-05-13T09:16:32;5.38;;;4.63;;
36839;SDS011;24406;51.640;9.566;2023-05-13T09:21:35;9.45;;;4.65;;
36839;SDS011;24406;51.640;9.566;2023-05-13T09:26:38;5.72;;;4.15;;
36839;SDS011;24406;51.640;9.566;2023-05-13T09:31:40;4.32;;;3.65;;
36839;SDS011;24406;51.640;9.566;2023-05-13T09:36:41;6.32;;;3.83;;
36839;SDS011;24406;51.640;9.566;2023-05-13T09:41:44;6.68;;;4.97;;
36839;SDS011;24406;51.640;9.566;2023-05-13T09:46:46;4.35;;;3.95;;
36839;SDS011;24406;51.640;9.566;2023-05-13T09:51:47;5.70;;;3.97;;
36839;SDS011;24406;51.640;9.566;2023-05-13T09:56:50;5.18;;;3.90;;
36839;SDS011;24406;51.640;9.566;2023-05-13T10:01:58;6.63;;;3.20;;
36839;SDS011;24406;51.640;9.566;2023-05-13T10:07:01;3.83;;;3.28;;
36839;SDS011;24406;51.640;9.566;2023-05-13T10:12:05;3.72;;;3.42;;
36839;SDS011;24406;51.640;9.566;2023-05-13T10:17:07;8.32;;;3.90;;
36839;SDS011;24406;51.640;9.566;2023-05-13T10:22:09;4.65;;;3.90;;
36839;SDS011;24406;51.640;9.566;2023-05-13T10:27:13;3.83;;;3.53;;
36839;SDS011;24406;51.640;9.566;2023-05-13T10:32:15;6.57;;;4.05;;
36839;SDS011;24406;51.640;9.566;2023-05-13T10:37:30;4.32;;;3.60;;
36839;SDS011;24406;51.640;9.566;2023-05-13T10:42:40;4.50;;;3.38;;
36839;SDS011;24406;51.640;9.566;2023-05-13T10:47:42;5.63;;;3.85;;
36839;SDS011;24406;51.640;9.566;2023-05-13T10:52:45;12.30;;;5.95;;
36839;SDS011;24406;51.640;9.566;2023-05-13T10:58:06;8.43;;;4.47;;
36839;SDS011;24406;51.640;9.566;2023-05-13T11:03:12;5.75;;;3.70;;
36839;SDS011;24406;51.640;9.566;2023-05-13T11:08:31;4.10;;;3.45;;
36839;SDS011;24406;51.640;9.566;2023-05-13T11:13:38;5.07;;;4.25;;
36839;SDS011;24406;51.640;9.566;2023-05-13T11:18:39;7.45;;;6.55;;
36839;SDS011;24406;51.640;9.566;2023-05-13T11:23:51;5.95;;;4.32;;
36839;SDS011;24406;51.640;9.566;2023-05-13T11:28:58;8.25;;;4.25;;
36839;SDS011;24406;51.640;9.566;2023-05-13T11:34:06;10.27;;;4.60;;
36839;SDS011;24406;51.640;9.566;2023-05-13T11:39:11;5.03;;;4.53;;
36839;SDS011;24406;51.640;9.566;2023-05-13T11:44:16;6.25;;;4.53;;
36839;SDS011;24406;51.640;9.566;2023-05-13T11:49:35;6.28;;;4.55;;
36839;SDS011;24406;51.640;9.566;2023-05-13T11:54:39;11.23;;;8.82;;
36839;SDS011;24406;51.640;9.566;2023-05-13T11:59:49;9.50;;;5.97;;
36839;SDS011;24406;51.640;9.566;2023-05-13T12:04:58;13.55;;;6.28;;
36839;SDS011;24406;51.640;9.566;2023-05-13T12:10:01;8.60;;;5.40;;
36839;SDS011;24406;51.640;9.566;2023-05-13T12:15:06;10.30;;;5.82;;
36839;SDS011;24406;51.640;9.566;2023-05-13T12:20:10;9.63;;;7.43;;
36839;SDS011;24406;51.640;9.566;2023-05-13T12:30:37;10.27;;;8.15;;
36839;SDS011;24406;51.640;9.566;2023-05-13T12:35:40;7.18;;;6.47;;
36839;SDS011;24406;51.640;9.566;2023-05-13T12:40:42;9.27;;;5.90;;
36839;SDS011;24406;51.640;9.566;2023-05-13T12:45:45;6.68;;;4.70;;
36839;SDS011;24406;51.640;9.566;2023-05-13T12:50:47;5.38;;;4.32;;
36839;SDS011;24406;51.640;9.566;2023-05-13T12:55:50;6.80;;;4.53;;
36839;SDS011;24406;51.640;9.566;2023-05-13T13:00:53;6.18;;;3.70;;
36839;SDS011;24406;51.640;9.566;2023-05-13T13:05:55;4.70;;;3.50;;
36839;SDS011;24406;51.640;9.566;2023-05-13T13:10:57;10.57;;;4.38;;
36839;SDS011;24406;51.640;9.566;2023-05-13T13:16:00;8.18;;;5.18;;
36839;SDS011;24406;51.640;9.566;2023-05-13T13:21:02;9.45;;;6.00;;
36839;SDS011;24406;51.640;9.566;2023-05-13T13:26:04;6.18;;;5.68;;
36839;SDS011;24406;51.640;9.566;2023-05-13T13:31:07;5.95;;;4.18;;
36839;SDS011;24406;51.640;9.566;2023-05-13T13:36:10;5.28;;;4.78;;
36839;SDS011;24406;51.640;9.566;2023-05-13T13:41:12;5.55;;;4.88;;
36839;SDS011;24406;51.640;9.566;2023-05-13T13:46:15;6.57;;;5.10;;
36839;SDS011;24406;51.640;9.566;2023-05-13T13:51:16;4.68;;;4.20;;
36839;SDS011;24406;51.640;9.566;2023-05-13T13:56:17;4.55;;;3.85;;
36839;SDS011;24406;51.640;9.566;2023-05-13T14:01:21;5.28;;;4.65;;
36839;SDS011;24406;51.640;9.566;2023-05-13T14:06:22;3.97;;;3.60;;
36839;SDS011;24406;51.640;9.566;2023-05-13T14:11:24;4.95;;;4.15;;
36839;SDS011;24406;51.640;9.566;2023-05-13T14:16:27;7.85;;;3.67;;
36839;SDS011;24406;51.640;9.566;2023-05-13T14:21:29;4.53;;;3.40;;
36839;SDS011;24406;51.640;9.566;2023-05-13T14:26:31;7.15;;;3.30;;
36839;SDS011;24406;51.640;9.566;2023-05-13T14:31:34;4.43;;;3.80;;
36839;SDS011;24406;51.640;9.566;2023-05-13T14:36:35;4.05;;;3.53;;
36839;SDS011;24406;51.640;9.566;2023-05-13T14:41:37;5.25;;;4.00;;
36839;SDS011;24406;51.640;9.566;2023-05-13T14:46:41;4.28;;;3.75;;
36839;SDS011;24406;51.640;9.566;2023-05-13T14:51:42;4.57;;;4.18;;
36839;SDS011;24406;51.640;9.566;2023-05-13T14:56:44;9.77;;;4.03;;
36839;SDS011;24406;51.640;9.566;2023-05-13T15:01:47;3.88;;;3.58;;
36839;SDS011;24406;51.640;9.566;2023-05-13T15:06:48;3.85;;;3.42;;
36839;SDS011;24406;51.640;9.566;2023-05-13T15:11:50;3.78;;;3.47;;
36839;SDS011;24406;51.640;9.566;2023-05-13T15:16:53;7.53;;;3.35;;
36839;SDS011;24406;51.640;9.566;2023-05-13T15:21:54;5.80;;;3.28;;
36839;SDS011;24406;51.640;9.566;2023-05-13T15:26:56;6.32;;;2.92;;
36839;SDS011;24406;51.640;9.566;2023-05-13T15:31:58;3.20;;;2.88;;
36839;SDS011;24406;51.640;9.566;2023-05-13T15:37:00;7.15;;;3.40;;
36839;SDS011;24406;51.640;9.566;2023-05-13T15:42:02;5.03;;;3.05;;
36839;SDS011;24406;51.640;9.566;2023-05-13T15:47:05;3.80;;;3.10;;
36839;SDS011;24406;51.640;9.566;2023-05-13T15:52:06;5.65;;;3.10;;
36839;SDS011;24406;51.640;9.566;2023-05-13T15:57:08;4.68;;;2.78;;
36839;SDS011;24406;51.640;9.566;2023-05-13T16:02:11;4.53;;;3.40;;
36839;SDS011;24406;51.640;9.566;2023-05-13T16:07:12;7.07;;;2.88;;
36839;SDS011;24406;51.640;9.566;2023-05-13T16:12:13;3.08;;;2.70;;
36839;SDS011;24406;51.640;9.566;2023-05-13T16:17:16;4.50;;;2.80;;
36839;SDS011;24406;51.640;9.566;2023-05-13T16:22:27;4.25;;;2.78;;
36839;SDS011;24406;51.640;9.566;2023-05-13T16:27:30;7.35;;;2.70;;
36839;SDS011;24406;51.640;9.566;2023-05-13T16:32:33;4.10;;;2.75;;
36839;SDS011;24406;51.640;9.566;2023-05-13T16:37:34;6.75;;;2.75;;
36839;SDS011;24406;51.640;9.566;2023-05-13T16:42:36;4.97;;;3.10;;
36839;SDS011;24406;51.640;9.566;2023-05-13T16:47:39;3.15;;;2.70;;
36839;SDS011;24406;51.640;9.566;2023-05-13T16:52:40;3.30;;;3.00;;
36839;SDS011;24406;51.640;9.566;2023-05-13T16:57:42;4.68;;;3.15;;
36839;SDS011;24406;51.640;9.566;2023-05-13T17:02:45;3.10;;;2.90;;
36839;SDS011;24406;51.640;9.566;2023-05-13T17:07:46;10.48;;;3.13;;
36839;SDS011;24406;51.640;9.566;2023-05-13T17:12:48;5.45;;;2.90;;
36839;SDS011;24406;51.640;9.566;2023-05-13T17:17:50;4.55;;;3.05;;
36839;SDS011;24406;51.640;9.566;2023-05-13T17:22:52;4.40;;;2.90;;
36839;SDS011;24406;51.640;9.566;2023-05-13T17:27:53;3.95;;;2.53;;
36839;SDS011;24406;51.640;9.566;2023-05-13T17:32:56;3.72;;;3.03;;
36839;SDS011;24406;51.640;9.566;2023-05-13T17:37:58;3.45;;;3.00;;
36839;SDS011;24406;51.640;9.566;2023-05-13T17:42:59;3.05;;;2.72;;
36839;SDS011;24406;51.640;9.566;2023-05-13T17:48:04;4.90;;;3.20;;
36839;SDS011;24406;51.640;9.566;2023-05-13T17:53:06;4.38;;;3.50;;
36839;SDS011;24406;51.640;9.566;2023-05-13T17:58:07;7.07;;;3.00;;
36839;SDS011;24406;51.640;9.566;2023-05-13T18:03:10;4.82;;;3.53;;
36839;SDS011;24406;51.640;9.566;2023-05-13T18:08:12;6.78;;;3.58;;
36839;SDS011;24406;51.640;9.566;2023-05-13T18:13:13;3.95;;;3.65;;
36839;SDS011;24406;51.640;9.566;2023-05-13T18:18:16;5.53;;;4.07;;
36839;SDS011;24406;51.640;9.566;2023-05-13T18:23:18;37.22;;;28.58;;
36839;SDS011;24406;51.640;9.566;2023-05-13T18:28:19;6.68;;;6.03;;
36839;SDS011;24406;51.640;9.566;2023-05-13T18:33:22;4.82;;;4.10;;
36839;SDS011;24406;51.640;9.566;2023-05-13T18:38:23;8.00;;;4.35;;
36839;SDS011;24406;51.640;9.566;2023-05-13T18:43:25;5.95;;;4.30;;
36839;SDS011;24406;51.640;9.566;2023-05-13T18:48:28;5.22;;;4.88;;
36839;SDS011;24406;51.640;9.566;2023-05-13T18:53:29;9.20;;;4.68;;
36839;SDS011;24406;51.640;9.566;2023-05-13T18:58:31;4.82;;;4.28;;
36839;SDS011;24406;51.640;9.566;2023-05-13T19:03:33;5.10;;;4.60;;
36839;SDS011;24406;51.640;9.566;2023-05-13T19:08:35;5.00;;;4.60;;
36839;SDS011;24406;51.640;9.566;2023-05-13T19:13:36;4.90;;;4.30;;
36839;SDS011;24406;51.640;9.566;2023-05-13T19:18:39;5.13;;;4.47;;
36839;SDS011;24406;51.640;9.566;2023-05-13T19:23:40;6.00;;;5.35;;
36839;SDS011;24406;51.640;9.566;2023-05-13T19:28:42;6.85;;;4.35;;
36839;SDS011;24406;51.640;9.566;2023-05-13T19:33:45;10.80;;;4.43;;
36839;SDS011;24406;51.640;9.566;2023-05-13T19:38:46;5.13;;;4.13;;
36839;SDS011;24406;51.640;9.566;2023-05-13T19:43:48;10.90;;;5.03;;
36839;SDS011;24406;51.640;9.566;2023-05-13T19:48:51;5.60;;;4.75;;
36839;SDS011;24406;51.640;9.566;2023-05-13T19:53:53;5.60;;;4.40;;
36839;SDS011;24406;51.640;9.566;2023-05-13T19:58:54;6.05;;;5.05;;
36839;SDS011;24406;51.640;9.566;2023-05-13T20:03:57;11.38;;;5.40;;
36839;SDS011;24406;51.640;9.566;2023-05-13T20:08:59;5.72;;;5.22;;
36839;SDS011;24406;51.640;9.566;2023-05-13T20:14:01;6.13;;;5.53;;
36839;SDS011;24406;51.640;9.566;2023-05-13T20:19:04;8.43;;;5.15;;
36839;SDS011;24406;51.640;9.566;2023-05-13T20:24:05;8.30;;;5.53;;
36839;SDS011;24406;51.640;9.566;2023-05-13T20:29:07;6.00;;;5.40;;
36839;SDS011;24406;51.640;9.566;2023-05-13T20:34:10;5.90;;;4.95;;
36839;SDS011;24406;51.640;9.566;2023-05-13T20:39:11;7.57;;;5.50;;
36839;SDS011;24406;51.640;9.566;2023-05-13T20:44:13;8.05;;;5.88;;
36839;SDS011;24406;51.640;9.566;2023-05-13T20:49:18;7.10;;;6.40;;
36839;SDS011;24406;51.640;9.566;2023-05-13T20:54:19;6.90;;;6.07;;
36839;SDS011;24406;51.640;9.566;2023-05-13T20:59:20;7.20;;;6.60;;
36839;SDS011;24406;51.640;9.566;2023-05-13T21:04:23;7.65;;;6.65;;
36839;SDS011;24406;51.640;9.566;2023-05-13T21:09:25;7.57;;;6.82;;
36839;SDS011;24406;51.640;9.566;2023-05-13T21:14:27;7.78;;;7.07;;
36839;SDS011;24406;51.640;9.566;2023-05-13T21:19:29;7.43;;;6.70;;
36839;SDS011;24406;51.640;9.566;2023-05-13T21:24:31;10.57;;;6.90;;
36839;SDS011;24406;51.640;9.566;2023-05-13T21:29:32;7.45;;;6.80;;
36839;SDS011;24406;51.640;9.566;2023-05-13T21:34:35;12.70;;;6.53;;
36839;SDS011;24406;51.640;9.566;2023-05-13T21:39:37;9.25;;;5.85;;
36839;SDS011;24406;51.640;9.566;2023-05-13T21:44:38;6.95;;;6.22;;
36839;SDS011;24406;51.640;9.566;2023-05-13T21:49:41;7.07;;;6.00;;
36839;SDS011;24406;51.640;9.566;2023-05-13T21:54:43;8.13;;;7.18;;
36839;SDS011;24406;51.640;9.566;2023-05-13T21:59:44;8.73;;;7.82;;
36839;SDS011;24406;51.640;9.566;2023-05-13T22:04:47;8.82;;;7.38;;
36839;SDS011;24406;51.640;9.566;2023-05-13T22:09:48;11.77;;;7.35;;
36839;SDS011;24406;51.640;9.566;2023-05-13T22:14:50;8.05;;;7.25;;
36839;SDS011;24406;51.640;9.566;2023-05-13T22:19:53;7.93;;;7.30;;
36839;SDS011;24406;51.640;9.566;2023-05-13T22:24:55;9.57;;;7.38;;
36839;SDS011;24406;51.640;9.566;2023-05-13T22:29:56;8.07;;;6.90;;
36839;SDS011;24406;51.640;9.566;2023-05-13T22:34:59;7.93;;;7.22;;
36839;SDS011;24406;51.640;9.566;2023-05-13T22:40:00;8.70;;;7.35;;
36839;SDS011;24406;51.640;9.566;2023-05-13T22:45:02;7.57;;;6.97;;
36839;SDS011;24406;51.640;9.566;2023-05-13T22:50:06;7.85;;;7.15;;
36839;SDS011;24406;51.640;9.566;2023-05-13T22:55:09;7.78;;;7.18;;
36839;SDS011;24406;51.640;9.566;2023-05-13T23:00:11;11.73;;;7.18;;
36839;SDS011;24406;51.640;9.566;2023-05-13T23:05:14;9.25;;;7.13;;
36839;SDS011;24406;51.640;9.566;2023-05-13T23:10:16;7.45;;;6.85;;
36839;SDS011;24406;51.640;9.566;2023-05-13T23:15:17;7.30;;;6.63;;
36839;SDS011;24406;51.640;9.566;2023-05-13T23:20:20;8.00;;;7.18;;
36839;SDS011;24406;51.640;9.566;2023-05-13T23:25:21;9.52;;;7.00;;
36839;SDS011;24406;51.640;9.566;2023-05-13T23:30:23;7.80;;;7.10;;
36839;SDS011;24406;51.640;9.566;2023-05-13T23:35:26;7.63;;;6.85;;
36839;SDS011;24406;51.640;9.566;2023-05-13T23:40:27;6.75;;;6.22;;
36839;SDS011;24406;51.640;9.566;2023-05-13T23:45:29;6.95;;;6.35;;
36839;SDS011;24406;51.640;9.566;2023-05-13T23:50:32;9.13;;;7.55;;
36839;SDS011;24406;51.640;9.566;2023-05-13T23:55:33;9.13;;;6.47;;
